sensor_id;sensor_type;location;lat;lon;timestamp;pressure;altitude;pressure_sealevel;temperature;humidity
4199;BME280;2113;50.946;14.610;2023-04-10T00:01:09;97931.13;;;4.94;88.92
4199;BME280;2113;50.946;14.610;2023-04-10T00:03:38;97929.66;;;4.90;88.80
4199;BME280;2113;50.946;14.610;2023-04-10T00:06:09;97925.41;;;4.89;88.78
4199;BME280;2113;50.946;14.610;2023-04-10T00:08:37;97918.53;;;4.88;88.33
4199;BME280;2113;50.946;14.610;2023-04-10T00:11:05;97922.38;;;4.81;88.70
4199;BME280;2113;50.946;14.610;2023-04-10T00:13:34;97923.56;;;4.75;88.67
4199;BME280;2113;50.946;14.610;2023-04-10T00:16:02;97920.53;;;4.67;89.07
4199;BME280;2113;50.946;14.610;2023-04-10T00:18:31;97929.78;;;4.55;88.92
4199;BME280;2113;50.946;14.610;2023-04-10T00:21:01;97927.78;;;4.60;88.80
4199;BME280;2113;50.946;14.610;2023-04-10T00:23:31;97923.25;;;4.48;88.51
4199;BME280;2113;50.946;14.610;2023-04-10T00:26:01;97920.56;;;4.34;88.93
4199;BME280;2113;50.946;14.610;2023-04-10T00:28:29;97917.59;;;4.24;89.67
4199;BME280;2113;50.946;14.610;2023-04-10T00:30:57;97916.41;;;4.14;89.68
4199;BME280;2113;50.946;14.610;2023-04-10T00:33:26;97913.75;;;4.16;89.95
4199;BME280;2113;50.946;14.610;2023-04-10T00:35:54;97912.53;;;4.23;89.79
4199;BME280;2113;50.946;14.610;2023-04-10T00:38:22;97909.56;;;4.13;89.81
4199;BME280;2113;50.946;14.610;2023-04-10T00:40:52;97909.28;;;4.02;90.17
4199;BME280;2113;50.946;14.610;2023-04-10T00:43:21;97908.63;;;3.81;90.62
4199;BME280;2113;50.946;14.610;2023-04-10T00:45:50;97915.75;;;3.76;91.35
4199;BME280;2113;50.946;14.610;2023-04-10T00:48:25;97917.91;;;3.68;91.44
4199;BME280;2113;50.946;14.610;2023-04-10T00:50:54;97916.53;;;3.61;91.58
4199;BME280;2113;50.946;14.610;2023-04-10T00:53:22;97916.16;;;3.51;91.88
4199;BME280;2113;50.946;14.610;2023-04-10T00:55:52;97913.16;;;3.42;91.79
4199;BME280;2113;50.946;14.610;2023-04-10T00:58:22;97910.13;;;3.34;92.19
4199;BME280;2113;50.946;14.610;2023-04-10T01:00:50;97911.41;;;3.42;91.62
4199;BME280;2113;50.946;14.610;2023-04-10T01:03:19;97913.09;;;3.43;91.79
4199;BME280;2113;50.946;14.610;2023-04-10T01:05:55;97916.50;;;3.44;91.98
4199;BME280;2113;50.946;14.610;2023-04-10T01:08:32;97913.00;;;3.45;92.51
4199;BME280;2113;50.946;14.610;2023-04-10T01:11:09;97917.25;;;3.46;93.14
4199;BME280;2113;50.946;14.610;2023-04-10T01:13:46;97922.16;;;3.52;93.92
4199;BME280;2113;50.946;14.610;2023-04-10T01:16:21;97923.50;;;3.59;94.19
4199;BME280;2113;50.946;14.610;2023-04-10T01:18:56;97919.81;;;3.82;93.80
4199;BME280;2113;50.946;14.610;2023-04-10T01:21:28;97914.38;;;3.86;93.31
4199;BME280;2113;50.946;14.610;2023-04-10T01:24:12;97911.09;;;4.00;93.12
4199;BME280;2113;50.946;14.610;2023-04-10T01:26:55;97911.94;;;4.01;92.31
4199;BME280;2113;50.946;14.610;2023-04-10T01:29:32;97913.31;;;4.08;92.22
4199;BME280;2113;50.946;14.610;2023-04-10T01:32:03;97911.31;;;4.13;91.94
4199;BME280;2113;50.946;14.610;2023-04-10T01:34:39;97905.22;;;4.14;91.40
4199;BME280;2113;50.946;14.610;2023-04-10T01:37:12;97903.47;;;4.14;91.35
4199;BME280;2113;50.946;14.610;2023-04-10T01:39:48;97897.03;;;4.23;91.21
4199;BME280;2113;50.946;14.610;2023-04-10T01:42:18;97897.84;;;4.23;91.39
4199;BME280;2113;50.946;14.610;2023-04-10T01:44:51;97891.34;;;4.32;91.24
4199;BME280;2113;50.946;14.610;2023-04-10T01:47:21;97897.13;;;4.37;90.85
4199;BME280;2113;50.946;14.610;2023-04-10T01:49:52;97891.44;;;4.31;90.43
4199;BME280;2113;50.946;14.610;2023-04-10T01:52:21;97891.75;;;4.24;90.13
4199;BME280;2113;50.946;14.610;2023-04-10T01:55:01;97897.16;;;4.20;90.53
4199;BME280;2113;50.946;14.610;2023-04-10T01:57:37;97898.03;;;4.03;91.97
4199;BME280;2113;50.946;14.610;2023-04-10T02:00:09;97901.94;;;3.95;92.72
4199;BME280;2113;50.946;14.610;2023-04-10T02:02:41;97890.69;;;3.96;92.97
4199;BME280;2113;50.946;14.610;2023-04-10T02:05:10;97896.75;;;3.95;93.25
4199;BME280;2113;50.946;14.610;2023-04-10T02:07:43;97895.44;;;4.03;92.94
4199;BME280;2113;50.946;14.610;2023-04-10T02:10:18;97895.38;;;4.05;92.86
4199;BME280;2113;50.946;14.610;2023-04-10T02:12:51;97899.94;;;4.00;93.06
4199;BME280;2113;50.946;14.610;2023-04-10T02:15:26;97895.66;;;3.99;93.36
4199;BME280;2113;50.946;14.610;2023-04-10T02:17:57;97897.81;;;4.08;93.06
4199;BME280;2113;50.946;14.610;2023-04-10T02:20:26;97893.69;;;4.04;93.20
4199;BME280;2113;50.946;14.610;2023-04-10T02:22:56;97897.28;;;4.01;93.08
4199;BME280;2113;50.946;14.610;2023-04-10T02:25:30;97886.63;;;4.07;93.25
4199;BME280;2113;50.946;14.610;2023-04-10T02:28:02;97893.91;;;4.16;92.71
4199;BME280;2113;50.946;14.610;2023-04-10T02:30:33;97887.91;;;4.16;92.47
4199;BME280;2113;50.946;14.610;2023-04-10T02:33:01;97889.72;;;4.14;92.73
4199;BME280;2113;50.946;14.610;2023-04-10T02:35:31;97886.16;;;4.16;92.43
4199;BME280;2113;50.946;14.610;2023-04-10T02:38:02;97888.72;;;4.16;92.37
4199;BME280;2113;50.946;14.610;2023-04-10T02:40:35;97886.44;;;4.10;92.46
4199;BME280;2113;50.946;14.610;2023-04-10T02:43:10;97886.44;;;4.10;92.00
4199;BME280;2113;50.946;14.610;2023-04-10T02:45:41;97888.38;;;4.07;92.22
4199;BME280;2113;50.946;14.610;2023-04-10T02:48:12;97888.84;;;3.98;92.43
4199;BME280;2113;50.946;14.610;2023-04-10T02:50:41;97890.00;;;3.92;93.21
4199;BME280;2113;50.946;14.610;2023-04-10T02:53:12;97894.47;;;3.88;93.63
4199;BME280;2113;50.946;14.610;2023-04-10T02:55:41;97890.84;;;3.92;93.54
4199;BME280;2113;50.946;14.610;2023-04-10T02:58:09;97895.53;;;4.02;93.66
4199;BME280;2113;50.946;14.610;2023-04-10T03:00:46;97895.59;;;4.00;93.64
4199;BME280;2113;50.946;14.610;2023-04-10T03:03:21;97894.88;;;4.14;93.48
4199;BME280;2113;50.946;14.610;2023-04-10T03:05:53;97895.03;;;4.11;93.24
4199;BME280;2113;50.946;14.610;2023-04-10T03:08:26;97888.13;;;4.11;92.94
4199;BME280;2113;50.946;14.610;2023-04-10T03:10:56;97898.09;;;4.19;92.80
4199;BME280;2113;50.946;14.610;2023-04-10T03:13:24;97889.72;;;4.14;92.66
4199;BME280;2113;50.946;14.610;2023-04-10T03:15:54;97893.13;;;4.14;92.83
4199;BME280;2113;50.946;14.610;2023-04-10T03:18:22;97883.88;;;4.10;92.52
4199;BME280;2113;50.946;14.610;2023-04-10T03:20:53;97885.31;;;4.16;92.57
4199;BME280;2113;50.946;14.610;2023-04-10T03:23:22;97892.38;;;4.12;92.80
4199;BME280;2113;50.946;14.610;2023-04-10T03:25:51;97883.66;;;3.98;92.66
4199;BME280;2113;50.946;14.610;2023-04-10T03:28:25;97884.00;;;3.91;93.11
4199;BME280;2113;50.946;14.610;2023-04-10T03:30:57;97889.38;;;3.87;93.13
4199;BME280;2113;50.946;14.610;2023-04-10T03:33:27;97898.31;;;3.81;92.57
4199;BME280;2113;50.946;14.610;2023-04-10T03:35:56;97890.78;;;3.77;92.82
4199;BME280;2113;50.946;14.610;2023-04-10T03:38:25;97894.72;;;3.67;93.31
4199;BME280;2113;50.946;14.610;2023-04-10T03:40:53;97885.38;;;3.64;93.49
4199;BME280;2113;50.946;14.610;2023-04-10T03:43:24;97896.78;;;3.60;93.55
4199;BME280;2113;50.946;14.610;2023-04-10T03:45:53;97891.53;;;3.62;93.66
4199;BME280;2113;50.946;14.610;2023-04-10T03:48:24;97893.28;;;3.61;94.01
4199;BME280;2113;50.946;14.610;2023-04-10T03:50:54;97896.41;;;3.68;93.77
4199;BME280;2113;50.946;14.610;2023-04-10T03:53:22;97898.66;;;3.56;93.75
4199;BME280;2113;50.946;14.610;2023-04-10T03:55:52;97895.56;;;3.50;94.06
4199;BME280;2113;50.946;14.610;2023-04-10T03:58:23;97894.78;;;3.48;93.95
4199;BME280;2113;50.946;14.610;2023-04-10T04:00:53;97897.31;;;3.49;94.24
4199;BME280;2113;50.946;14.610;2023-04-10T04:03:35;97897.00;;;3.38;94.13
4199;BME280;2113;50.946;14.610;2023-04-10T04:06:22;97894.84;;;3.29;94.46
4199;BME280;2113;50.946;14.610;2023-04-10T04:09:05;97893.41;;;3.24;94.58
4199;BME280;2113;50.946;14.610;2023-04-10T04:11:40;97896.81;;;3.24;94.94
4199;BME280;2113;50.946;14.610;2023-04-10T04:14:26;97893.34;;;3.25;95.19
4199;BME280;2113;50.946;14.610;2023-04-10T04:17:10;97893.63;;;3.19;95.20
4199;BME280;2113;50.946;14.610;2023-04-10T04:20:18;97901.28;;;3.20;94.93
4199;BME280;2113;50.946;14.610;2023-04-10T04:23:07;97904.91;;;3.16;94.71
4199;BME280;2113;50.946;14.610;2023-04-10T04:26:02;97906.91;;;3.11;95.46
4199;BME280;2113;50.946;14.610;2023-04-10T04:28:53;97908.66;;;3.11;94.83
4199;BME280;2113;50.946;14.610;2023-04-10T04:31:41;97913.88;;;3.09;94.62
4199;BME280;2113;50.946;14.610;2023-04-10T04:34:32;97913.16;;;3.25;94.36
4199;BME280;2113;50.946;14.610;2023-04-10T04:37:12;97918.69;;;3.34;93.96
4199;BME280;2113;50.946;14.610;2023-04-10T04:39:56;97918.25;;;3.26;94.55
4199;BME280;2113;50.946;14.610;2023-04-10T04:42:43;97915.50;;;3.29;94.54
4199;BME280;2113;50.946;14.610;2023-04-10T04:45:24;97922.13;;;3.35;94.11
4199;BME280;2113;50.946;14.610;2023-04-10T04:48:13;97926.00;;;3.43;94.24
4199;BME280;2113;50.946;14.610;2023-04-10T04:51:00;97935.59;;;3.58;93.81
4199;BME280;2113;50.946;14.610;2023-04-10T04:53:40;97937.25;;;3.60;93.81
4199;BME280;2113;50.946;14.610;2023-04-10T04:56:29;97943.13;;;3.63;93.70
4199;BME280;2113;50.946;14.610;2023-04-10T04:59:17;97941.88;;;3.70;94.16
4199;BME280;2113;50.946;14.610;2023-04-10T05:02:24;97949.34;;;3.93;93.87
4199;BME280;2113;50.946;14.610;2023-04-10T05:05:19;97952.66;;;4.13;93.14
4199;BME280;2113;50.946;14.610;2023-04-10T05:08:13;97945.19;;;4.24;92.64
4199;BME280;2113;50.946;14.610;2023-04-10T05:11:06;97949.72;;;4.20;93.50
4199;BME280;2113;50.946;14.610;2023-04-10T05:14:13;97940.78;;;4.26;93.89
4199;BME280;2113;50.946;14.610;2023-04-10T05:17:07;97943.69;;;4.37;93.15
4199;BME280;2113;50.946;14.610;2023-04-10T05:19:55;97942.47;;;4.60;92.47
4199;BME280;2113;50.946;14.610;2023-04-10T05:22:59;97954.34;;;4.80;91.73
4199;BME280;2113;50.946;14.610;2023-04-10T05:25:54;97948.94;;;4.84;91.46
4199;BME280;2113;50.946;14.610;2023-04-10T05:28:44;97958.63;;;4.96;91.57
4199;BME280;2113;50.946;14.610;2023-04-10T05:31:41;97955.97;;;5.14;91.07
4199;BME280;2113;50.946;14.610;2023-04-10T05:34:14;97955.72;;;5.18;90.58
4199;BME280;2113;50.946;14.610;2023-04-10T05:37:12;97964.97;;;5.22;90.67
4199;BME280;2113;50.946;14.610;2023-04-10T05:40:10;97958.53;;;5.29;90.89
4199;BME280;2113;50.946;14.610;2023-04-10T05:43:16;97960.44;;;5.42;90.65
4199;BME280;2113;50.946;14.610;2023-04-10T05:46:05;97952.38;;;5.62;90.32
4199;BME280;2113;50.946;14.610;2023-04-10T05:49:08;97953.94;;;5.80;88.81
4199;BME280;2113;50.946;14.610;2023-04-10T05:51:51;97948.41;;;5.86;88.77
4199;BME280;2113;50.946;14.610;2023-04-10T05:54:36;97954.28;;;6.04;88.12
4199;BME280;2113;50.946;14.610;2023-04-10T05:57:17;97951.81;;;6.17;86.88
4199;BME280;2113;50.946;14.610;2023-04-10T05:59:59;97958.13;;;6.13;86.89
4199;BME280;2113;50.946;14.610;2023-04-10T06:02:50;97960.19;;;6.22;86.72
4199;BME280;2113;50.946;14.610;2023-04-10T06:05:24;97963.44;;;6.25;86.14
4199;BME280;2113;50.946;14.610;2023-04-10T06:07:58;97958.19;;;6.41;85.83
4199;BME280;2113;50.946;14.610;2023-04-10T06:10:28;97953.91;;;6.40;85.62
4199;BME280;2113;50.946;14.610;2023-04-10T06:12:56;97950.66;;;6.36;85.78
4199;BME280;2113;50.946;14.610;2023-04-10T06:15:25;97948.31;;;6.18;86.84
4199;BME280;2113;50.946;14.610;2023-04-10T06:17:55;97955.22;;;6.03;88.27
4199;BME280;2113;50.946;14.610;2023-04-10T06:20:24;97948.66;;;5.97;88.45
4199;BME280;2113;50.946;14.610;2023-04-10T06:22:52;97954.25;;;6.20;88.24
4199;BME280;2113;50.946;14.610;2023-04-10T06:25:20;97960.22;;;6.50;87.51
4199;BME280;2113;50.946;14.610;2023-04-10T06:27:49;97953.34;;;6.92;86.15
4199;BME280;2113;50.946;14.610;2023-04-10T06:30:17;97953.19;;;7.22;85.05
4199;BME280;2113;50.946;14.610;2023-04-10T06:32:45;97955.97;;;7.72;83.38
4199;BME280;2113;50.946;14.610;2023-04-10T06:35:16;97950.97;;;8.21;81.08
4199;BME280;2113;50.946;14.610;2023-04-10T06:37:45;97956.00;;;8.63;78.27
4199;BME280;2113;50.946;14.610;2023-04-10T06:40:14;97949.97;;;8.49;77.46
4199;BME280;2113;50.946;14.610;2023-04-10T06:42:43;97950.78;;;8.37;77.29
4199;BME280;2113;50.946;14.610;2023-04-10T06:45:14;97947.03;;;8.29;77.90
4199;BME280;2113;50.946;14.610;2023-04-10T06:47:43;97950.28;;;7.93;79.47
4199;BME280;2113;50.946;14.610;2023-04-10T06:50:11;97950.97;;;7.42;82.91
4199;BME280;2113;50.946;14.610;2023-04-10T06:52:43;97954.56;;;7.54;81.65
4199;BME280;2113;50.946;14.610;2023-04-10T06:55:11;97960.81;;;7.91;81.69
4199;BME280;2113;50.946;14.610;2023-04-10T06:57:40;97954.84;;;8.29;79.38
4199;BME280;2113;50.946;14.610;2023-04-10T07:00:09;97953.38;;;8.75;76.50
4199;BME280;2113;50.946;14.610;2023-04-10T07:02:38;97954.38;;;9.11;76.01
4199;BME280;2113;50.946;14.610;2023-04-10T07:05:07;97948.09;;;11.54;65.55
4199;BME280;2113;50.946;14.610;2023-04-10T07:07:36;97937.81;;;15.08;53.00
4199;BME280;2113;50.946;14.610;2023-04-10T07:10:07;97934.84;;;16.19;48.61
4199;BME280;2113;50.946;14.610;2023-04-10T07:12:36;97941.47;;;16.93;45.07
4199;BME280;2113;50.946;14.610;2023-04-10T07:15:05;97935.34;;;17.93;42.18
4199;BME280;2113;50.946;14.610;2023-04-10T07:17:34;97929.78;;;17.46;42.75
4199;BME280;2113;50.946;14.610;2023-04-10T07:20:04;97918.53;;;20.51;37.04
4199;BME280;2113;50.946;14.610;2023-04-10T07:22:33;97932.88;;;20.04;37.20
4199;BME280;2113;50.946;14.610;2023-04-10T07:25:08;97930.56;;;22.56;32.08
4199;BME280;2113;50.946;14.610;2023-04-10T07:27:38;97927.91;;;23.66;30.84
4199;BME280;2113;50.946;14.610;2023-04-10T07:30:10;97914.03;;;25.54;27.51
4199;BME280;2113;50.946;14.610;2023-04-10T07:32:40;97908.28;;;26.20;26.48
4199;BME280;2113;50.946;14.610;2023-04-10T07:35:13;97912.41;;;22.11;31.52
4199;BME280;2113;50.946;14.610;2023-04-10T07:37:45;97916.53;;;20.53;34.59
4199;BME280;2113;50.946;14.610;2023-04-10T07:40:21;97909.94;;;23.34;30.92
4199;BME280;2113;50.946;14.610;2023-04-10T07:42:52;97908.47;;;21.49;34.38
4199;BME280;2113;50.946;14.610;2023-04-10T07:45:25;97910.06;;;20.70;34.50
4199;BME280;2113;50.946;14.610;2023-04-10T07:47:56;97883.69;;;24.25;29.68
4199;BME280;2113;50.946;14.610;2023-04-10T07:50:26;97897.19;;;24.63;28.13
4199;BME280;2113;50.946;14.610;2023-04-10T07:52:55;97891.94;;;23.01;30.33
4199;BME280;2113;50.946;14.610;2023-04-10T07:55:25;97892.72;;;21.69;33.41
4199;BME280;2113;50.946;14.610;2023-04-10T07:57:54;97892.16;;;23.54;29.44
4199;BME280;2113;50.946;14.610;2023-04-10T08:00:23;97888.66;;;22.37;31.33
4199;BME280;2113;50.946;14.610;2023-04-10T08:02:52;97882.56;;;23.66;30.91
4199;BME280;2113;50.946;14.610;2023-04-10T08:05:20;97881.81;;;24.38;28.93
4199;BME280;2113;50.946;14.610;2023-04-10T08:07:48;97880.69;;;20.86;34.41
4199;BME280;2113;50.946;14.610;2023-04-10T08:10:17;97885.59;;;22.68;31.47
4199;BME280;2113;50.946;14.610;2023-04-10T08:12:47;97878.53;;;23.23;31.13
4199;BME280;2113;50.946;14.610;2023-04-10T08:15:16;97881.50;;;21.31;34.19
4199;BME280;2113;50.946;14.610;2023-04-10T08:17:44;97883.69;;;21.27;34.15
4199;BME280;2113;50.946;14.610;2023-04-10T08:20:13;97881.38;;;19.14;36.55
4199;BME280;2113;50.946;14.610;2023-04-10T08:22:41;97876.47;;;18.56;36.85
4199;BME280;2113;50.946;14.610;2023-04-10T08:25:09;97878.13;;;20.49;33.69
4199;BME280;2113;50.946;14.610;2023-04-10T08:27:38;97871.59;;;23.35;29.55
4199;BME280;2113;50.946;14.610;2023-04-10T08:30:09;97867.28;;;25.57;26.84
4199;BME280;2113;50.946;14.610;2023-04-10T08:32:37;97871.44;;;23.02;31.20
4199;BME280;2113;50.946;14.610;2023-04-10T08:35:07;97866.63;;;19.20;34.97
4199;BME280;2113;50.946;14.610;2023-04-10T08:37:36;97868.09;;;19.99;34.36
4199;BME280;2113;50.946;14.610;2023-04-10T08:40:05;97869.56;;;22.06;32.17
4199;BME280;2113;50.946;14.610;2023-04-10T08:42:34;97865.16;;;23.77;29.51
4199;BME280;2113;50.946;14.610;2023-04-10T08:45:04;97866.69;;;20.63;30.90
4199;BME280;2113;50.946;14.610;2023-04-10T08:47:37;97874.53;;;19.59;35.03
4199;BME280;2113;50.946;14.610;2023-04-10T08:50:10;97866.34;;;19.91;33.06
4199;BME280;2113;50.946;14.610;2023-04-10T08:52:42;97860.09;;;21.39;31.48
4199;BME280;2113;50.946;14.610;2023-04-10T08:55:12;97866.53;;;19.05;33.68
4199;BME280;2113;50.946;14.610;2023-04-10T08:57:41;97866.63;;;20.34;32.19
4199;BME280;2113;50.946;14.610;2023-04-10T09:00:27;97871.94;;;20.34;32.24
4199;BME280;2113;50.946;14.610;2023-04-10T09:02:59;97873.19;;;18.21;37.06
4199;BME280;2113;50.946;14.610;2023-04-10T09:05:31;97860.50;;;21.21;33.31
4199;BME280;2113;50.946;14.610;2023-04-10T09:08:08;97859.81;;;23.16;29.65
4199;BME280;2113;50.946;14.610;2023-04-10T09:10:38;97865.28;;;21.26;30.38
4199;BME280;2113;50.946;14.610;2023-04-10T09:13:06;97858.28;;;19.00;34.72
4199;BME280;2113;50.946;14.610;2023-04-10T09:15:55;97865.78;;;15.90;41.03
4199;BME280;2113;50.946;14.610;2023-04-10T09:18:39;97861.50;;;17.99;36.28
4199;BME280;2113;50.946;14.610;2023-04-10T09:21:08;97864.63;;;17.62;37.77
4199;BME280;2113;50.946;14.610;2023-04-10T09:23:37;97856.84;;;18.26;36.87
4199;BME280;2113;50.946;14.610;2023-04-10T09:26:22;97850.69;;;20.19;32.72
4199;BME280;2113;50.946;14.610;2023-04-10T09:28:57;97849.47;;;20.07;33.52
4199;BME280;2113;50.946;14.610;2023-04-10T09:31:30;97853.34;;;21.22;30.79
4199;BME280;2113;50.946;14.610;2023-04-10T09:34:10;97836.72;;;22.48;29.80
4199;BME280;2113;50.946;14.610;2023-04-10T09:36:39;97839.91;;;22.09;30.94
4199;BME280;2113;50.946;14.610;2023-04-10T09:39:09;97848.13;;;17.85;36.87
4199;BME280;2113;50.946;14.610;2023-04-10T09:41:48;97844.03;;;17.08;39.85
4199;BME280;2113;50.946;14.610;2023-04-10T09:44:27;97837.97;;;20.14;33.90
4199;BME280;2113;50.946;14.610;2023-04-10T09:46:57;97825.06;;;20.49;32.53
4199;BME280;2113;50.946;14.610;2023-04-10T09:49:28;97843.97;;;18.06;36.67
4199;BME280;2113;50.946;14.610;2023-04-10T09:51:57;97832.72;;;16.81;39.16
4199;BME280;2113;50.946;14.610;2023-04-10T09:54:36;97831.50;;;17.10;40.14
4199;BME280;2113;50.946;14.610;2023-04-10T09:57:06;97822.50;;;18.09;36.26
4199;BME280;2113;50.946;14.610;2023-04-10T09:59:40;97821.06;;;18.62;35.98
4199;BME280;2113;50.946;14.610;2023-04-10T10:02:16;97817.19;;;19.12;34.81
4199;BME280;2113;50.946;14.610;2023-04-10T10:04:48;97825.22;;;18.96;36.10
4199;BME280;2113;50.946;14.610;2023-04-10T10:07:20;97817.06;;;19.59;33.54
4199;BME280;2113;50.946;14.610;2023-04-10T10:09:51;97822.81;;;17.33;36.73
4199;BME280;2113;50.946;14.610;2023-04-10T10:12:25;97821.19;;;16.82;41.10
4199;BME280;2113;50.946;14.610;2023-04-10T10:15:00;97805.72;;;19.20;35.53
4199;BME280;2113;50.946;14.610;2023-04-10T10:17:33;97808.28;;;19.36;34.68
4199;BME280;2113;50.946;14.610;2023-04-10T10:20:08;97807.28;;;17.30;37.91
4199;BME280;2113;50.946;14.610;2023-04-10T10:22:38;97803.03;;;17.62;38.71
4199;BME280;2113;50.946;14.610;2023-04-10T10:25:08;97802.88;;;18.04;37.73
4199;BME280;2113;50.946;14.610;2023-04-10T10:27:37;97801.50;;;18.08;37.78
4199;BME280;2113;50.946;14.610;2023-04-10T10:30:08;97801.09;;;18.43;37.67
4199;BME280;2113;50.946;14.610;2023-04-10T10:32:57;97791.28;;;19.91;34.29
4199;BME280;2113;50.946;14.610;2023-04-10T10:35:29;97791.16;;;18.93;34.22
4199;BME280;2113;50.946;14.610;2023-04-10T10:37:59;97783.34;;;18.60;33.74
4199;BME280;2113;50.946;14.610;2023-04-10T10:40:31;97788.28;;;18.16;35.80
4199;BME280;2113;50.946;14.610;2023-04-10T10:43:06;97781.22;;;18.56;34.23
4199;BME280;2113;50.946;14.610;2023-04-10T10:45:40;97789.28;;;17.26;38.03
4199;BME280;2113;50.946;14.610;2023-04-10T10:48:12;97779.19;;;16.55;38.28
4199;BME280;2113;50.946;14.610;2023-04-10T10:50:53;97772.97;;;17.47;37.71
4199;BME280;2113;50.946;14.610;2023-04-10T10:53:34;97774.03;;;18.80;36.75
4199;BME280;2113;50.946;14.610;2023-04-10T10:56:34;97760.03;;;18.64;36.70
4199;BME280;2113;50.946;14.610;2023-04-10T10:59:03;97765.53;;;15.91;40.65
4199;BME280;2113;50.946;14.610;2023-04-10T11:01:31;97761.72;;;16.12;40.43
4199;BME280;2113;50.946;14.610;2023-04-10T11:07:09;97749.31;;;18.88;35.50
4199;BME280;2113;50.946;14.610;2023-04-10T11:09:49;97753.50;;;17.31;40.02
4199;BME280;2113;50.946;14.610;2023-04-10T11:12:22;97749.31;;;16.88;39.56
4199;BME280;2113;50.946;14.610;2023-04-10T11:14:57;97746.56;;;17.38;36.92
4199;BME280;2113;50.946;14.610;2023-04-10T11:17:55;97743.75;;;17.64;36.52
4199;BME280;2113;50.946;14.610;2023-04-10T11:20:24;97733.69;;;17.60;39.16
4199;BME280;2113;50.946;14.610;2023-04-10T11:23:08;97737.63;;;16.99;39.72
4199;BME280;2113;50.946;14.610;2023-04-10T11:25:46;97742.78;;;15.03;40.52
4199;BME280;2113;50.946;14.610;2023-04-10T11:28:35;97730.09;;;15.86;41.21
4199;BME280;2113;50.946;14.610;2023-04-10T11:31:15;97719.66;;;16.44;38.69
4199;BME280;2113;50.946;14.610;2023-04-10T11:33:46;97722.97;;;15.35;39.21
4199;BME280;2113;50.946;14.610;2023-04-10T11:36:15;97722.78;;;14.20;44.30
4199;BME280;2113;50.946;14.610;2023-04-10T11:38:56;97720.09;;;14.30;43.86
4199;BME280;2113;50.946;14.610;2023-04-10T11:41:26;97707.72;;;13.85;45.68
4199;BME280;2113;50.946;14.610;2023-04-10T11:43:56;97719.41;;;13.53;46.90
4199;BME280;2113;50.946;14.610;2023-04-10T11:46:25;97713.06;;;13.46;47.82
4199;BME280;2113;50.946;14.610;2023-04-10T11:48:54;97718.88;;;13.97;46.36
4199;BME280;2113;50.946;14.610;2023-04-10T11:51:23;97721.66;;;13.85;44.12
4199;BME280;2113;50.946;14.610;2023-04-10T11:54:05;97718.28;;;13.66;42.34
4199;BME280;2113;50.946;14.610;2023-04-10T11:56:35;97708.50;;;14.22;42.55
4199;BME280;2113;50.946;14.610;2023-04-10T11:59:04;97703.09;;;14.06;43.97
4199;BME280;2113;50.946;14.610;2023-04-10T12:01:37;97696.03;;;14.97;44.73
4199;BME280;2113;50.946;14.610;2023-04-10T12:04:15;97698.94;;;14.76;38.42
4199;BME280;2113;50.946;14.610;2023-04-10T12:06:45;97691.16;;;15.02;36.91
4199;BME280;2113;50.946;14.610;2023-04-10T12:09:16;97694.44;;;15.66;38.94
4199;BME280;2113;50.946;14.610;2023-04-10T12:11:50;97688.81;;;15.94;40.12
4199;BME280;2113;50.946;14.610;2023-04-10T12:14:19;97695.78;;;15.52;37.01
4199;BME280;2113;50.946;14.610;2023-04-10T12:16:48;97688.13;;;14.97;38.22
4199;BME280;2113;50.946;14.610;2023-04-10T12:19:18;97683.97;;;15.30;36.35
4199;BME280;2113;50.946;14.610;2023-04-10T12:21:46;97684.88;;;15.47;37.04
4199;BME280;2113;50.946;14.610;2023-04-10T12:24:40;97676.88;;;16.16;38.81
4199;BME280;2113;50.946;14.610;2023-04-10T12:27:14;97678.28;;;16.45;37.04
4199;BME280;2113;50.946;14.610;2023-04-10T12:29:43;97676.63;;;16.44;36.97
4199;BME280;2113;50.946;14.610;2023-04-10T12:32:12;97675.19;;;15.73;39.86
4199;BME280;2113;50.946;14.610;2023-04-10T12:34:41;97663.97;;;15.19;38.85
4199;BME280;2113;50.946;14.610;2023-04-10T12:37:09;97661.66;;;15.94;38.99
4199;BME280;2113;50.946;14.610;2023-04-10T12:39:37;97660.50;;;16.39;38.63
4199;BME280;2113;50.946;14.610;2023-04-10T12:42:14;97657.53;;;15.40;39.37
4199;BME280;2113;50.946;14.610;2023-04-10T12:44:50;97658.97;;;14.55;38.63
4199;BME280;2113;50.946;14.610;2023-04-10T12:47:19;97649.34;;;14.81;38.32
4199;BME280;2113;50.946;14.610;2023-04-10T12:50:01;97640.75;;;16.00;37.38
4199;BME280;2113;50.946;14.610;2023-04-10T12:52:30;97639.38;;;15.28;38.61
4199;BME280;2113;50.946;14.610;2023-04-10T12:55:08;97640.72;;;14.71;38.91
4199;BME280;2113;50.946;14.610;2023-04-10T12:57:39;97632.09;;;14.61;40.27
4199;BME280;2113;50.946;14.610;2023-04-10T13:00:10;97633.97;;;14.69;38.89
4199;BME280;2113;50.946;14.610;2023-04-10T13:02:39;97622.41;;;14.62;40.28
4199;BME280;2113;50.946;14.610;2023-04-10T13:05:09;97619.94;;;14.42;38.45
4199;BME280;2113;50.946;14.610;2023-04-10T13:07:38;97616.38;;;14.69;39.92
4199;BME280;2113;50.946;14.610;2023-04-10T13:10:08;97617.44;;;15.20;41.17
4199;BME280;2113;50.946;14.610;2023-04-10T13:12:36;97613.50;;;14.98;41.76
4199;BME280;2113;50.946;14.610;2023-04-10T13:15:08;97605.72;;;15.40;38.67
4199;BME280;2113;50.946;14.610;2023-04-10T13:17:36;97612.00;;;15.21;40.32
4199;BME280;2113;50.946;14.610;2023-04-10T13:20:08;97604.31;;;14.58;39.58
4199;BME280;2113;50.946;14.610;2023-04-10T13:22:37;97613.56;;;14.35;38.07
4199;BME280;2113;50.946;14.610;2023-04-10T13:25:05;97609.88;;;13.83;38.08
4199;BME280;2113;50.946;14.610;2023-04-10T13:27:33;97606.34;;;14.02;36.49
4199;BME280;2113;50.946;14.610;2023-04-10T13:30:02;97604.78;;;13.81;36.36
4199;BME280;2113;50.946;14.610;2023-04-10T13:32:33;97599.91;;;13.86;37.85
4199;BME280;2113;50.946;14.610;2023-04-10T13:35:02;97596.66;;;14.47;39.02
4199;BME280;2113;50.946;14.610;2023-04-10T13:37:30;97590.44;;;15.44;36.11
4199;BME280;2113;50.946;14.610;2023-04-10T13:39:58;97591.97;;;15.80;39.46
4199;BME280;2113;50.946;14.610;2023-04-10T13:42:26;97587.25;;;14.63;38.24
4199;BME280;2113;50.946;14.610;2023-04-10T13:44:54;97587.31;;;14.17;36.57
4199;BME280;2113;50.946;14.610;2023-04-10T13:47:22;97579.66;;;13.79;38.32
4199;BME280;2113;50.946;14.610;2023-04-10T13:49:52;97580.53;;;14.15;37.95
4199;BME280;2113;50.946;14.610;2023-04-10T13:52:21;97566.81;;;14.74;35.28
4199;BME280;2113;50.946;14.610;2023-04-10T13:54:49;97571.03;;;15.79;33.84
4199;BME280;2113;50.946;14.610;2023-04-10T13:57:18;97576.41;;;15.09;34.02